Time;durP1;ratioP1;P1;durP2;ratioP2;P2;SDS_P1;SDS_P2;PMS_P1;PMS_P2;Temp;Humidity;BMP_temperature;BMP_pressure;BME280_temperature;BME280_humidity;BME280_pressure;Samples;Min_cycle;Max_cycle;Signal;HPM_P1;HPM_P2
2023/01/03 00:02:17;;;;;;;0.63;0.50;;;;;;;;;;10085574;29;20041;-83
2023/01/03 00:07:33;;;;;;;1.15;0.60;;;;;;;;;;10101492;29;20128;-84
2023/01/03 00:12:38;;;;;;;1.08;0.63;;;;;;;;;;10102818;29;20052;-84
2023/01/03 00:17:42;;;;;;;1.25;0.50;;;;;;;;;;10092221;29;20055;-84
2023/01/03 00:22:45;;;;;;;1.58;0.65;;;;;;;;;;10099301;29;20057;-84
2023/01/03 00:27:49;;;;;;;1.27;0.60;;;;;;;;;;10092805;29;20099;-85
2023/01/03 00:32:53;;;;;;;1.48;0.45;;;;;;;;;;10110557;29;20432;-84
2023/01/03 00:37:56;;;;;;;0.60;0.60;;;;;;;;;;10096836;29;20496;-84
2023/01/03 00:48:22;;;;;;;0.90;0.43;;;;;;;;;;10103153;29;20710;-84
2023/01/03 00:53:26;;;;;;;2.85;0.63;;;;;;;;;;10120060;29;20452;-84
2023/01/03 00:58:32;;;;;;;0.90;0.70;;;;;;;;;;10097570;29;20064;-83
2023/01/03 01:03:36;;;;;;;1.10;0.70;;;;;;;;;;10105078;29;20052;-84
2023/01/03 01:08:40;;;;;;;2.78;0.73;;;;;;;;;;10101675;29;20543;-85
2023/01/03 01:13:46;;;;;;;0.50;0.50;;;;;;;;;;10118951;29;20072;-85
2023/01/03 01:18:52;;;;;;;0.85;0.50;;;;;;;;;;10117339;29;20048;-83
2023/01/03 01:23:55;;;;;;;0.40;0.30;;;;;;;;;;10123984;29;20072;-83
2023/01/03 01:29:00;;;;;;;0.98;0.35;;;;;;;;;;10114191;29;20093;-83
2023/01/03 01:34:04;;;;;;;0.90;0.30;;;;;;;;;;10113588;29;20117;-84
2023/01/03 01:39:14;;;;;;;0.40;0.40;;;;;;;;;;10140421;29;20715;-84
2023/01/03 01:44:57;;;;;;;0.63;0.40;;;;;;;;;;10123531;29;20051;-85
2023/01/03 01:50:16;;;;;;;0.40;0.40;;;;;;;;;;10115707;29;20056;-82
2023/01/03 02:00:51;;;;;;;1.02;0.40;;;;;;;;;;10386798;23;20088;-90
2023/01/03 02:05:56;;;;;;;0.57;0.50;;;;;;;;;;10096298;29;20137;-88
2023/01/03 02:11:19;;;;;;;0.77;0.50;;;;;;;;;;10100820;29;20108;-86
2023/01/03 02:16:37;;;;;;;0.40;0.40;;;;;;;;;;10093280;29;20048;-86
2023/01/03 02:22:10;;;;;;;0.65;0.40;;;;;;;;;;10094645;29;20047;-88
2023/01/03 02:27:37;;;;;;;0.40;0.40;;;;;;;;;;10090207;29;20068;-86
2023/01/03 02:32:48;;;;;;;0.40;0.40;;;;;;;;;;10093797;29;20044;-86
2023/01/03 02:37:58;;;;;;;0.50;0.50;;;;;;;;;;10108837;29;20072;-86
2023/01/03 02:43:07;;;;;;;0.40;0.35;;;;;;;;;;10110084;29;20132;-86
2023/01/03 02:48:15;;;;;;;1.17;0.52;;;;;;;;;;10094000;29;20135;-85
2023/01/03 02:53:21;;;;;;;0.60;0.40;;;;;;;;;;10093229;29;20531;-86
2023/01/03 02:58:28;;;;;;;0.88;0.55;;;;;;;;;;10093158;29;20417;-86
2023/01/03 03:03:38;;;;;;;0.93;0.60;;;;;;;;;;10090427;29;20053;-86
2023/01/03 03:08:46;;;;;;;0.40;0.40;;;;;;;;;;10098219;29;20052;-90
2023/01/03 03:13:53;;;;;;;0.50;0.40;;;;;;;;;;10091826;29;20135;-86
2023/01/03 03:19:00;;;;;;;1.30;0.47;;;;;;;;;;10093726;29;20240;-85
2023/01/03 03:29:33;;;;;;;0.75;0.52;;;;;;;;;;10100526;29;20069;-85
2023/01/03 03:34:38;;;;;;;0.50;0.40;;;;;;;;;;10111353;29;20479;-88
2023/01/03 03:45:09;;;;;;;0.47;0.47;;;;;;;;;;10071304;29;20079;-85
2023/01/03 03:50:19;;;;;;;0.75;0.43;;;;;;;;;;10091395;29;20075;-87
2023/01/03 03:55:28;;;;;;;0.88;0.60;;;;;;;;;;10092028;29;20135;-88
2023/01/03 04:00:37;;;;;;;1.63;0.90;;;;;;;;;;10089972;29;20076;-87
2023/01/03 04:05:46;;;;;;;0.73;0.70;;;;;;;;;;10091072;29;20045;-87
2023/01/03 04:10:50;;;;;;;1.27;0.70;;;;;;;;;;10089460;29;20053;-87
2023/01/03 04:15:53;;;;;;;1.25;0.60;;;;;;;;;;10090615;29;20461;-89
2023/01/03 04:20:59;;;;;;;4.00;0.90;;;;;;;;;;10099463;29;20133;-87
2023/01/03 04:26:02;;;;;;;1.17;0.63;;;;;;;;;;10092408;29;20063;-89
2023/01/03 04:31:06;;;;;;;0.60;0.60;;;;;;;;;;10089194;29;20063;-90
2023/01/03 04:36:11;;;;;;;1.33;0.57;;;;;;;;;;10092074;29;20054;-90
2023/01/03 04:41:15;;;;;;;1.83;1.23;;;;;;;;;;10092471;29;20053;-88
2023/01/03 04:46:19;;;;;;;3.13;1.70;;;;;;;;;;10090894;29;20448;-87
2023/01/03 04:51:24;;;;;;;2.35;1.13;;;;;;;;;;10090269;29;20091;-89
2023/01/03 04:56:29;;;;;;;1.58;0.77;;;;;;;;;;10091849;29;20061;-89
2023/01/03 05:01:32;;;;;;;0.82;0.82;;;;;;;;;;10089678;29;20132;-88
2023/01/03 05:06:37;;;;;;;0.70;0.60;;;;;;;;;;10096383;29;20131;-88
2023/01/03 05:11:41;;;;;;;0.52;0.52;;;;;;;;;;10088421;29;20408;-87
2023/01/03 05:16:44;;;;;;;1.27;0.80;;;;;;;;;;10100767;29;20527;-87
2023/01/03 05:27:18;;;;;;;1.65;0.95;;;;;;;;;;10065846;29;20060;-87
2023/01/03 05:32:23;;;;;;;1.05;0.88;;;;;;;;;;10100025;29;20059;-84
2023/01/03 05:37:28;;;;;;;1.25;1.10;;;;;;;;;;10112607;29;20447;-82
2023/01/03 05:42:32;;;;;;;1.10;1.00;;;;;;;;;;10093680;29;20143;-84
2023/01/03 05:47:35;;;;;;;2.17;1.35;;;;;;;;;;10090104;29;20420;-83
2023/01/03 05:52:40;;;;;;;1.33;1.13;;;;;;;;;;10106192;29;20705;-84
2023/01/03 05:57:45;;;;;;;2.00;1.23;;;;;;;;;;10087400;29;20083;-84
2023/01/03 06:02:49;;;;;;;1.80;1.30;;;;;;;;;;10080136;29;20095;-84
2023/01/03 06:07:54;;;;;;;3.30;1.90;;;;;;;;;;10085646;29;20420;-82
2023/01/03 06:12:58;;;;;;;9.65;3.58;;;;;;;;;;10097055;29;20052;-84
2023/01/03 06:18:01;;;;;;;14.20;6.13;;;;;;;;;;10114415;29;20079;-83
2023/01/03 06:23:06;;;;;;;7.70;4.55;;;;;;;;;;10112219;29;20506;-85
2023/01/03 06:28:09;;;;;;;4.93;2.90;;;;;;;;;;10087480;29;20041;-84
2023/01/03 06:33:13;;;;;;;4.20;2.00;;;;;;;;;;10088383;29;20436;-84
2023/01/03 06:38:18;;;;;;;2.25;1.63;;;;;;;;;;10088692;29;20083;-89
2023/01/03 06:43:22;;;;;;;1.83;1.40;;;;;;;;;;10087240;29;20054;-84
2023/01/03 06:53:49;;;;;;;3.25;1.38;;;;;;;;;;10091344;29;20548;-89
2023/01/03 06:58:53;;;;;;;1.10;1.00;;;;;;;;;;10095641;29;20053;-84
2023/01/03 07:03:56;;;;;;;0.95;0.75;;;;;;;;;;10092534;29;20112;-86
2023/01/03 07:09:01;;;;;;;3.67;1.90;;;;;;;;;;10115399;29;20400;-91
2023/01/03 07:14:06;;;;;;;1.23;1.13;;;;;;;;;;10107804;29;20048;-89
2023/01/03 07:19:12;;;;;;;2.75;1.10;;;;;;;;;;10114523;29;20131;-86
2023/01/03 07:24:18;;;;;;;;;;;;;;;;;;10106171;29;20492;-86
2023/01/03 07:29:22;;;;;;;1.67;0.80;;;;;;;;;;10106352;29;20116;-86
2023/01/03 07:34:26;;;;;;;1.58;1.08;;;;;;;;;;10104533;29;20060;-86
2023/01/03 07:39:30;;;;;;;1.25;0.70;;;;;;;;;;10089876;29;20055;-85
2023/01/03 07:44:36;;;;;;;1.20;1.00;;;;;;;;;;10107150;29;20135;-84
2023/01/03 07:49:40;;;;;;;2.45;0.80;;;;;;;;;;10098267;29;20056;-84
2023/01/03 07:54:45;;;;;;;0.80;0.80;;;;;;;;;;10092260;29;20101;-88
2023/01/03 07:59:48;;;;;;;0.70;0.70;;;;;;;;;;10093125;29;20056;-87
2023/01/03 08:04:52;;;;;;;1.05;0.95;;;;;;;;;;10100390;29;20447;-86
2023/01/03 08:15:27;;;;;;;1.05;0.60;;;;;;;;;;10067986;29;20068;-85
2023/01/03 08:20:32;;;;;;;1.05;0.75;;;;;;;;;;10078975;29;20041;-84
2023/01/03 08:25:38;;;;;;;0.57;0.53;;;;;;;;;;10088196;29;20075;-89
2023/01/03 08:30:47;;;;;;;1.25;0.80;;;;;;;;;;10095685;29;20421;-86
2023/01/03 18:28:00;;;;;;;0.80;0.80;;;;;;;;;;13019802;22;1700394;-88
2023/01/03 18:33:04;;;;;;;1.20;0.95;;;;;;;;;;12957134;22;20119;-91
2023/01/03 18:38:11;;;;;;;2.83;1.20;;;;;;;;;;12981781;22;20058;-87
2023/01/03 18:43:17;;;;;;;1.15;0.80;;;;;;;;;;12967649;22;20019;-88
2023/01/03 18:48:21;;;;;;;;;;;;;;;;;;12945840;22;20498;-89
2023/01/03 18:53:29;;;;;;;1.73;0.85;;;;;;;;;;12957129;22;19915;-87
2023/01/03 18:58:37;;;;;;;2.28;1.13;;;;;;;;;;12946502;22;20035;-86
2023/01/03 19:03:42;;;;;;;3.05;1.02;;;;;;;;;;12939841;22;20111;-85
2023/01/03 19:08:46;;;;;;;3.05;1.40;;;;;;;;;;12945122;22;20303;-86
2023/01/03 19:13:53;;;;;;;1.70;0.98;;;;;;;;;;12966787;22;20103;-86
2023/01/03 19:18:57;;;;;;;2.25;1.02;;;;;;;;;;12950415;22;20337;-87
2023/01/03 19:24:03;;;;;;;1.33;1.00;;;;;;;;;;12964988;22;20066;-86
2023/01/03 19:29:16;;;;;;;1.80;1.33;;;;;;;;;;12986645;22;20326;-86
2023/01/03 19:34:21;;;;;;;2.00;1.63;;;;;;;;;;12965910;22;20057;-86
2023/01/03 19:39:24;;;;;;;2.35;1.38;;;;;;;;;;12967658;22;20019;-85
2023/01/03 19:44:30;;;;;;;1.52;1.00;;;;;;;;;;12993508;22;20027;-90
2023/01/03 19:49:34;;;;;;;1.80;1.00;;;;;;;;;;12984198;22;20042;-89
2023/01/03 19:54:37;;;;;;;2.78;1.05;;;;;;;;;;12973527;22;20402;-88
2023/01/03 19:59:42;;;;;;;2.20;1.13;;;;;;;;;;12965669;22;20027;-88
2023/01/03 20:04:46;;;;;;;1.80;1.20;;;;;;;;;;12972792;22;20020;-88
2023/01/03 20:09:50;;;;;;;3.17;1.50;;;;;;;;;;12952258;22;20031;-87
2023/01/03 20:14:56;;;;;;;4.65;1.58;;;;;;;;;;12955289;22;20015;-92
2023/01/03 20:20:03;;;;;;;2.35;1.70;;;;;;;;;;12952590;22;20077;-87
2023/01/03 20:25:13;;;;;;;1.75;1.10;;;;;;;;;;12954015;22;20026;-90
2023/01/03 20:30:20;;;;;;;2.47;1.10;;;;;;;;;;12947178;22;20051;-90
2023/01/03 20:35:25;;;;;;;2.03;0.93;;;;;;;;;;12975979;22;20326;-86
2023/01/03 20:40:49;;;;;;;1.80;1.17;;;;;;;;;;12937592;22;20023;-85
2023/01/03 20:45:55;;;;;;;1.30;0.95;;;;;;;;;;12945070;22;20401;-85
2023/01/03 20:50:59;;;;;;;2.05;1.30;;;;;;;;;;12937068;22;20257;-86
2023/01/03 20:56:03;;;;;;;1.77;1.30;;;;;;;;;;12967729;22;20085;-86
2023/01/03 21:01:09;;;;;;;2.08;1.23;;;;;;;;;;12965525;22;20054;-88
2023/01/03 21:06:17;;;;;;;5.40;2.17;;;;;;;;;;12980977;22;20602;-88
2023/01/03 21:11:21;;;;;;;3.15;1.80;;;;;;;;;;12956019;22;20219;-88
2023/01/03 21:16:35;;;;;;;5.53;1.80;;;;;;;;;;12957138;22;20015;-88
2023/01/03 21:21:39;;;;;;;2.35;1.30;;;;;;;;;;12949297;22;20433;-87
2023/01/03 21:26:42;;;;;;;2.22;1.10;;;;;;;;;;12943012;22;20039;-86
2023/01/03 21:31:47;;;;;;;3.72;1.20;;;;;;;;;;12936440;22;20030;-85
2023/01/03 21:36:51;;;;;;;5.57;1.75;;;;;;;;;;12940613;22;20026;-87
2023/01/03 21:47:16;;;;;;;2.15;1.42;;;;;;;;;;12985676;22;20031;-88
2023/01/03 21:52:20;;;;;;;1.98;1.30;;;;;;;;;;12955891;22;20418;-86
2023/01/03 21:57:23;;;;;;;4.03;1.50;;;;;;;;;;12943984;22;20369;-86
2023/01/03 22:07:49;;;;;;;5.15;1.90;;;;;;;;;;12945199;22;20031;-86
2023/01/03 22:12:56;;;;;;;3.13;1.48;;;;;;;;;;12941147;22;20026;-85
2023/01/03 22:18:04;;;;;;;4.15;1.85;;;;;;;;;;12944863;22;20431;-85
2023/01/03 22:23:10;;;;;;;1.88;1.13;;;;;;;;;;12969933;22;20028;-86
2023/01/03 22:28:14;;;;;;;6.45;1.35;;;;;;;;;;12943330;22;20019;-86
2023/01/03 22:33:19;;;;;;;1.92;1.20;;;;;;;;;;12942917;22;20030;-86
2023/01/03 22:38:22;;;;;;;2.17;1.23;;;;;;;;;;12944120;22;20197;-85
2023/01/03 22:43:26;;;;;;;2.47;1.10;;;;;;;;;;12943888;22;20154;-85
2023/01/03 22:48:32;;;;;;;1.98;1.30;;;;;;;;;;12954504;22;20464;-88
2023/01/03 22:53:38;;;;;;;1.70;0.80;;;;;;;;;;12962665;22;20024;-91
2023/01/03 22:58:42;;;;;;;1.80;1.30;;;;;;;;;;12974571;22;20027;-86
2023/01/03 23:03:47;;;;;;;3.05;1.55;;;;;;;;;;12947018;22;20032;-91
2023/01/03 23:08:51;;;;;;;2.00;1.27;;;;;;;;;;12980183;22;20023;-88
2023/01/03 23:13:55;;;;;;;1.67;1.10;;;;;;;;;;12936976;22;20464;-89
2023/01/03 23:19:02;;;;;;;1.65;1.17;;;;;;;;;;12959861;22;20027;-87
2023/01/03 23:24:06;;;;;;;1.83;1.10;;;;;;;;;;12961369;22;20040;-86
2023/01/03 23:29:12;;;;;;;1.50;1.00;;;;;;;;;;12945015;22;20500;-85
2023/01/03 23:34:17;;;;;;;1.30;1.20;;;;;;;;;;12949233;22;20029;-86
2023/01/03 23:39:21;;;;;;;1.15;1.00;;;;;;;;;;12938205;22;20030;-86
2023/01/03 23:44:25;;;;;;;1.48;1.20;;;;;;;;;;12937194;22;20408;-85
2023/01/03 23:49:30;;;;;;;3.88;1.60;;;;;;;;;;12939124;22;20020;-86
2023/01/03 23:54:34;;;;;;;2.58;1.60;;;;;;;;;;12965020;22;20626;-86
2023/01/03 23:59:37;;;;;;;1.40;1.20;;;;;;;;;;12953492;22;20027;-85
